Time;durP1;ratioP1;P1;durP2;ratioP2;P2;SDS_P1;SDS_P2;PMS_P1;PMS_P2;Temp;Humidity;BMP_temperature;BMP_pressure;BME280_temperature;BME280_humidity;BME280_pressure;Samples;Min_cycle;Max_cycle;Signal;HPM_P1;HPM_P2
2023/01/08 00:01:12;;;;;;;0.70;0.70;;;9.10;75.20;;;8.18;62.47;94639.78;5015756;28;20613;-38
2023/01/08 00:03:40;;;;;;;0.70;0.70;;;9.10;75.20;;;8.18;62.49;94637.19;5015704;28;20194;-38
2023/01/08 00:06:14;;;;;;;0.60;0.60;;;9.10;75.20;;;8.16;62.43;94639.94;5015981;28;20201;-38
2023/01/08 00:08:42;;;;;;;0.60;0.60;;;9.10;75.20;;;8.14;62.79;94631.50;5015551;28;20616;-38
2023/01/08 00:11:10;;;;;;;0.70;0.70;;;9.10;75.20;;;8.14;62.80;94628.06;5015639;28;20280;-38
2023/01/08 00:13:37;;;;;;;0.70;0.70;;;9.00;75.10;;;8.13;62.50;94629.88;5014954;28;20514;-38
2023/01/08 00:16:07;;;;;;;0.70;0.70;;;9.00;75.10;;;8.13;62.73;94623.84;5014906;28;20193;-38
2023/01/08 00:18:34;;;;;;;0.70;0.70;;;9.00;75.10;;;8.10;62.69;94624.22;5014784;28;20197;-38
2023/01/08 00:21:03;;;;;;;0.60;0.60;;;9.00;75.10;;;8.11;62.55;94620.63;5015443;28;20203;-38
2023/01/08 00:23:30;;;;;;;0.70;0.70;;;9.00;75.10;;;8.10;62.64;94611.94;5015347;28;20225;-38
2023/01/08 00:26:01;;;;;;;0.70;0.70;;;9.00;75.10;;;8.11;62.57;94613.56;5015238;28;20221;-39
2023/01/08 00:28:29;;;;;;;0.70;0.70;;;9.00;75.10;;;8.11;62.53;94608.34;5015249;28;20269;-39
2023/01/08 00:30:56;;;;;;;0.70;0.70;;;9.00;75.10;;;8.14;62.60;94608.00;5015576;28;20193;-39
2023/01/08 00:33:23;;;;;;;0.60;0.60;;;9.00;75.10;;;8.13;62.76;94597.72;5015526;28;20304;-39
2023/01/08 00:35:50;;;;;;;0.70;0.70;;;9.00;75.10;;;8.14;62.66;94607.16;5015370;28;20200;-38
2023/01/08 00:38:17;;;;;;;0.80;0.80;;;9.00;75.10;;;8.11;62.57;94595.28;5014378;28;20217;-41
2023/01/08 00:40:44;;;;;;;0.70;0.70;;;9.00;75.10;;;8.10;62.64;94611.94;4998375;28;20564;-42
2023/01/08 00:43:11;;;;;;;0.70;0.70;;;9.00;75.10;;;8.10;62.57;94603.31;5015173;28;20643;-39
2023/01/08 00:45:38;;;;;;;0.70;0.70;;;9.00;75.10;;;8.09;62.54;94605.13;5015415;28;20200;-38
2023/01/08 00:48:05;;;;;;;0.60;0.60;;;8.90;75.90;;;8.09;62.45;94602.53;5016584;28;20224;-41
2023/01/08 00:50:32;;;;;;;0.77;0.77;;;9.00;75.10;;;8.09;62.61;94612.16;5021798;28;20201;-38
2023/01/08 00:52:59;;;;;;;0.60;0.60;;;9.00;75.10;;;8.08;62.36;94603.50;5021652;28;20193;-41
2023/01/08 00:55:26;;;;;;;0.70;0.70;;;8.90;75.00;;;8.06;62.44;94610.72;5021622;28;20263;-38
2023/01/08 00:57:54;;;;;;;0.70;0.70;;;8.90;75.00;;;8.06;62.88;94609.91;5020549;28;20197;-38
2023/01/08 01:00:22;;;;;;;0.70;0.70;;;8.90;75.00;;;8.05;62.59;94618.75;5021686;28;20197;-39
2023/01/08 01:02:49;;;;;;;0.70;0.70;;;8.90;75.00;;;8.01;62.65;94616.47;5020707;28;20197;-38
2023/01/08 01:05:16;;;;;;;0.70;0.70;;;8.90;75.00;;;8.00;62.57;94621.91;5021515;28;20197;-39
2023/01/08 01:07:43;;;;;;;0.70;0.70;;;8.90;75.00;;;7.96;62.53;94608.38;5021503;28;20197;-42
2023/01/08 01:10:13;;;;;;;0.80;0.80;;;8.90;75.00;;;7.94;62.91;94623.41;5021392;28;20203;-45
2023/01/08 01:12:41;;;;;;;0.70;0.70;;;8.90;75.10;;;7.92;62.65;94614.97;5021468;28;20590;-44
2023/01/08 01:15:12;;;;;;;0.70;0.70;;;8.80;75.00;;;7.91;62.57;94626.41;5020756;28;20208;-39
2023/01/08 01:17:41;;;;;;;0.70;0.70;;;8.80;75.00;;;7.88;62.74;94623.34;5021457;28;20196;-43
2023/01/08 01:20:14;;;;;;;0.70;0.70;;;8.80;75.00;;;7.85;62.82;94630.56;5021471;28;20537;-38
2023/01/08 01:22:42;;;;;;;0.80;0.80;;;8.80;75.00;;;7.84;63.01;94633.34;5021578;28;20182;-43
2023/01/08 01:25:09;;;;;;;0.70;0.70;;;8.80;75.00;;;7.82;62.82;94628.31;5020316;28;20343;-40
2023/01/08 01:27:36;;;;;;;0.70;0.70;;;8.80;75.00;;;7.79;62.87;94639.13;5021523;28;20193;-41
2023/01/08 01:30:04;;;;;;;0.70;0.70;;;8.70;75.00;;;7.79;62.92;94640.94;5021152;28;20248;-38
2023/01/08 01:32:32;;;;;;;0.70;0.70;;;8.70;75.00;;;7.79;62.94;94635.72;5021285;28;20207;-41
2023/01/08 01:34:59;;;;;;;0.70;0.70;;;8.70;75.00;;;7.78;63.02;94639.31;5021234;28;20197;-43
2023/01/08 01:37:26;;;;;;;0.80;0.80;;;8.70;75.00;;;7.77;63.01;94643.69;5021253;28;20201;-42
2023/01/08 01:39:55;;;;;;;0.70;0.70;;;8.70;75.00;;;7.75;63.29;94627.44;5020035;28;20217;-44
2023/01/08 01:42:39;;;;;;;0.70;0.70;;;8.70;75.00;;;7.77;63.02;94629.84;5021518;28;20668;-41
2023/01/08 01:45:23;;;;;;;0.70;0.70;;;8.70;75.00;;;7.72;63.03;94625.16;5021303;28;20257;-46
2023/01/08 01:48:10;;;;;;;0.70;0.70;;;8.60;75.40;;;7.71;62.84;94627.97;5021290;28;20185;-38
2023/01/08 01:50:50;;;;;;;0.70;0.70;;;8.70;75.40;;;7.69;63.21;94622.94;5021487;28;20675;-38
2023/01/08 01:53:29;;;;;;;0.70;0.70;;;8.60;75.50;;;7.69;63.05;94615.09;5021167;28;20196;-38
2023/01/08 01:55:57;;;;;;;0.70;0.70;;;8.60;75.30;;;7.69;63.31;94609.88;5021221;28;20178;-38
2023/01/08 01:58:30;;;;;;;0.70;0.70;;;8.60;75.40;;;7.68;63.55;94616.09;5020810;28;20213;-38
2023/01/08 02:01:03;;;;;;;0.70;0.70;;;8.60;75.80;;;7.69;63.55;94609.88;5017389;28;20280;-40
2023/01/08 02:03:36;;;;;;;0.70;0.70;;;8.60;75.70;;;7.67;63.56;94598.78;5017263;28;20193;-38
2023/01/08 02:06:37;;;;;;;0.70;0.70;;;8.60;75.70;;;7.64;63.46;94596.53;5017950;28;20174;-38
2023/01/08 02:09:19;;;;;;;0.70;0.70;;;8.60;75.80;;;7.59;63.71;94594.50;5017734;28;20197;-38
2023/01/08 02:12:19;;;;;;;0.70;0.70;;;8.60;75.80;;;7.58;63.97;94595.47;5016957;28;20597;-38
2023/01/08 02:15:23;;;;;;;0.70;0.70;;;8.50;75.60;;;7.56;63.81;94584.41;5009437;28;20202;-38
2023/01/08 02:18:06;;;;;;;0.70;0.70;;;8.50;75.90;;;7.55;63.76;94580.16;5002524;28;20219;-38
2023/01/08 02:20:48;;;;;;;0.70;0.70;;;8.50;75.90;;;7.54;63.68;94578.53;5017460;28;20189;-38
2023/01/08 02:24:05;;;;;;;0.68;0.68;;;8.50;75.90;;;7.50;63.60;94580.69;5017618;28;20193;-38
2023/01/08 02:26:34;;;;;;;0.80;0.80;;;8.50;76.00;;;7.48;63.91;94579.25;5017329;28;20327;-38
2023/01/08 02:29:15;;;;;;;0.60;0.60;;;8.40;75.80;;;7.46;63.74;94581.28;5016491;28;20220;-38
2023/01/08 02:31:43;;;;;;;0.70;0.70;;;8.40;76.00;;;7.47;64.00;94580.25;5016578;28;20181;-38
2023/01/08 02:34:11;;;;;;;0.70;0.70;;;8.40;75.90;;;7.47;64.08;94575.03;5016800;28;20521;-41
2023/01/08 02:36:44;;;;;;;0.68;0.68;;;8.40;76.10;;;7.45;64.30;94569.22;5017319;28;20197;-39
2023/01/08 02:39:26;;;;;;;0.70;0.70;;;8.40;76.10;;;7.44;64.11;94567.59;5016234;28;20231;-39
2023/01/08 02:42:14;;;;;;;0.70;0.70;;;8.40;76.30;;;7.42;64.37;94562.56;5017222;28;20198;-42
2023/01/08 02:45:15;;;;;;;0.70;0.70;;;8.40;76.30;;;7.42;64.23;94566.94;5017127;28;20526;-40
2023/01/08 02:47:48;;;;;;;0.70;0.70;;;8.30;76.30;;;7.40;64.48;94558.47;5017409;28;20496;-40
2023/01/08 02:50:38;;;;;;;0.70;0.70;;;8.30;76.10;;;7.40;64.18;94561.91;5016146;28;20208;-38
2023/01/08 02:53:35;;;;;;;0.80;0.80;;;8.30;76.20;;;7.40;64.34;94561.91;5016371;28;20185;-42
2023/01/08 02:56:10;;;;;;;0.70;0.70;;;8.30;76.40;;;7.41;64.19;94562.72;5015349;28;20687;-40
2023/01/08 02:58:39;;;;;;;0.70;0.70;;;8.30;76.20;;;7.41;64.35;94558.31;5016099;28;20208;-39
2023/01/08 03:01:10;;;;;;;0.70;0.70;;;8.30;76.20;;;7.43;64.09;94564.16;5016134;28;20267;-41
2023/01/08 03:03:42;;;;;;;0.70;0.70;;;8.30;76.30;;;7.42;64.15;94556.50;5016793;28;20522;-38
2023/01/08 03:06:13;;;;;;;0.70;0.70;;;8.30;76.20;;;7.40;64.60;94563.69;5017332;28;20574;-38
2023/01/08 03:08:45;;;;;;;0.70;0.70;;;8.30;76.40;;;7.41;64.30;94560.09;5015740;28;20181;-41
2023/01/08 03:11:15;;;;;;;0.70;0.70;;;8.30;76.30;;;7.40;64.60;94561.91;5015650;28;20616;-39
2023/01/08 03:14:02;;;;;;;0.70;0.70;;;8.30;76.40;;;7.40;64.12;94559.31;5016888;28;20244;-38
2023/01/08 03:16:34;;;;;;;0.70;0.70;;;8.30;76.40;;;7.40;64.28;94551.47;5015970;28;20281;-39
2023/01/08 03:19:15;;;;;;;0.60;0.60;;;8.30;76.40;;;7.41;64.15;94545.28;5016416;28;20531;-41
2023/01/08 03:21:43;;;;;;;0.70;0.70;;;8.30;76.50;;;7.43;64.51;94548.50;5015663;28;20563;-41
2023/01/08 03:24:14;;;;;;;0.70;0.70;;;8.30;76.40;;;7.41;64.50;94534.84;5016397;28;20194;-43
2023/01/08 03:26:44;;;;;;;0.80;0.80;;;8.30;76.50;;;7.43;64.51;94529.44;5015429;28;20233;-44
2023/01/08 03:29:16;;;;;;;0.70;0.70;;;8.30;76.50;;;7.39;64.24;94521.16;5015318;28;20197;-39
2023/01/08 03:31:45;;;;;;;0.70;0.70;;;8.30;76.50;;;7.35;64.66;94530.34;5015590;28;20193;-44
2023/01/08 03:34:15;;;;;;;0.70;0.70;;;8.30;76.40;;;7.33;64.65;94534.94;5015379;28;20200;-38
2023/01/08 03:36:47;;;;;;;0.70;0.70;;;8.30;76.40;;;7.30;64.63;94541.31;4999551;28;20197;-45
2023/01/08 03:39:27;;;;;;;0.70;0.70;;;8.30;76.50;;;7.29;64.35;94534.47;5015173;28;20197;-38
2023/01/08 03:42:01;;;;;;;0.60;0.60;;;8.20;77.30;;;7.29;64.54;94525.84;5016127;28;20256;-39
2023/01/08 03:44:28;;;;;;;0.70;0.70;;;8.20;76.40;;;7.28;64.57;94522.41;5015448;28;20176;-38
2023/01/08 03:46:56;;;;;;;0.80;0.80;;;8.20;76.40;;;7.29;64.63;94518.81;5016003;28;20256;-38
2023/01/08 03:49:26;;;;;;;0.70;0.70;;;8.20;76.50;;;7.29;64.76;94534.47;5015212;28;20206;-41
2023/01/08 03:51:53;;;;;;;0.70;0.70;;;8.20;76.60;;;7.26;65.23;94528.81;5015549;28;20542;-38
2023/01/08 03:54:28;;;;;;;0.70;0.70;;;8.20;76.60;;;7.26;64.64;94518.38;5015219;28;20696;-38
2023/01/08 03:56:55;;;;;;;0.60;0.60;;;8.20;76.70;;;7.26;64.89;94510.56;5015022;28;20256;-38
2023/01/08 03:59:22;;;;;;;0.80;0.80;;;8.20;76.60;;;7.26;65.07;94513.97;5015587;28;20217;-39
2023/01/08 04:01:49;;;;;;;0.70;0.70;;;8.20;76.70;;;7.27;64.61;94502.53;5015772;28;20190;-41
2023/01/08 04:04:17;;;;;;;0.70;0.70;;;8.20;76.70;;;7.27;64.74;94505.16;5015934;28;20190;-38
2023/01/08 04:06:44;;;;;;;0.80;0.80;;;8.20;76.70;;;7.27;64.89;94505.16;5015654;28;20190;-40
2023/01/08 04:09:12;;;;;;;0.70;0.70;;;8.20;76.70;;;7.27;64.75;94504.34;5014912;28;20536;-41
2023/01/08 04:11:39;;;;;;;0.80;0.80;;;8.20;76.70;;;7.26;64.80;94500.13;5015580;28;20197;-38
2023/01/08 04:14:06;;;;;;;0.80;0.80;;;8.20;76.70;;;7.25;64.75;94504.53;5015577;28;20255;-38
2023/01/08 04:16:33;;;;;;;0.70;0.70;;;8.20;76.70;;;7.25;64.68;94508.94;5015515;28;20201;-38
2023/01/08 04:19:00;;;;;;;0.80;0.80;;;8.20;76.70;;;7.25;64.70;94511.53;5015645;28;20674;-38
2023/01/08 04:21:28;;;;;;;0.80;0.80;;;8.10;76.60;;;7.25;64.71;94511.53;5015524;28;20206;-38
2023/01/08 04:23:55;;;;;;;0.70;0.70;;;8.10;76.70;;;7.22;64.66;94507.50;5015036;28;20193;-38
2023/01/08 04:26:22;;;;;;;0.70;0.70;;;8.10;76.60;;;7.20;64.68;94510.28;5015414;28;20336;-38
2023/01/08 04:28:49;;;;;;;0.70;0.70;;;8.10;76.70;;;7.21;64.64;94505.88;5015402;28;20197;-41
2023/01/08 04:31:16;;;;;;;0.70;0.70;;;8.10;76.60;;;7.19;64.86;94516.50;5015184;28;20190;-38
2023/01/08 04:33:43;;;;;;;0.80;0.80;;;8.10;76.70;;;7.20;64.58;94522.50;5015617;28;20189;-44
2023/01/08 04:36:10;;;;;;;0.70;0.70;;;8.10;76.60;;;7.19;64.57;94516.50;5014444;28;20197;-38
2023/01/08 04:38:37;;;;;;;0.70;0.70;;;8.10;76.50;;;7.19;64.47;94521.72;5014459;28;20558;-38
2023/01/08 04:41:04;;;;;;;0.70;0.70;;;8.10;76.60;;;7.21;64.53;94524.97;5015264;28;20554;-38
2023/01/08 04:43:32;;;;;;;0.70;0.70;;;8.10;76.70;;;7.21;64.44;94526.75;5015192;28;20197;-41
2023/01/08 04:46:01;;;;;;;0.70;0.70;;;8.10;76.70;;;7.21;64.58;94522.34;5014344;28;20200;-43
2023/01/08 04:48:29;;;;;;;0.70;0.70;;;8.10;76.60;;;7.21;64.32;94518.91;5015336;28;20197;-38
2023/01/08 04:50:59;;;;;;;0.80;0.80;;;8.10;76.60;;;7.21;64.60;94522.34;5015034;28;20197;-42
2023/01/08 04:53:27;;;;;;;0.80;0.80;;;8.10;76.70;;;7.21;64.41;94519.75;5014431;28;20300;-42
2023/01/08 04:55:54;;;;;;;0.70;0.70;;;8.10;76.60;;;7.22;64.40;94510.09;5015096;28;20197;-40
2023/01/08 04:58:21;;;;;;;0.70;0.70;;;8.10;76.60;;;7.21;64.56;94513.69;5014213;28;20279;-40
2023/01/08 05:00:48;;;;;;;0.70;0.70;;;8.10;76.60;;;7.21;64.50;94511.09;5015111;28;20526;-44
2023/01/08 05:03:15;;;;;;;0.70;0.70;;;8.10;76.60;;;7.21;64.43;94505.88;5014901;28;20194;-38
2023/01/08 05:05:42;;;;;;;0.70;0.70;;;8.10;76.60;;;7.21;64.39;94513.69;5015213;28;20535;-41
2023/01/08 05:08:09;;;;;;;0.65;0.65;;;8.10;76.60;;;7.17;64.37;94508.03;5014984;28;20190;-41
2023/01/08 05:10:37;;;;;;;0.60;0.60;;;8.10;76.60;;;7.13;64.69;94498.97;5014940;28;20609;-39
2023/01/08 05:13:04;;;;;;;0.70;0.70;;;8.10;76.60;;;7.12;64.70;94493.94;5014787;28;20197;-44
2023/01/08 05:15:31;;;;;;;0.70;0.70;;;8.10;76.60;;;7.08;64.60;94487.44;5014883;28;20193;-39
2023/01/08 05:18:05;;;;;;;0.70;0.70;;;8.00;76.50;;;7.03;64.78;94475.75;5015383;28;20281;-44
2023/01/08 05:20:33;;;;;;;0.70;0.70;;;8.00;76.60;;;6.99;65.03;94474.47;5014843;28;20208;-41
2023/01/08 05:23:00;;;;;;;0.60;0.60;;;8.00;76.60;;;6.97;65.06;94468.66;5014669;28;20253;-39
2023/01/08 05:25:27;;;;;;;0.70;0.70;;;8.00;76.60;;;6.95;64.92;94456.78;5015017;28;20229;-44
2023/01/08 05:27:54;;;;;;;0.70;0.70;;;8.00;76.60;;;6.91;65.16;94456.34;5014807;28;20189;-46
2023/01/08 05:30:21;;;;;;;0.60;0.60;;;7.90;76.60;;;6.89;65.21;94451.28;5015116;28;20220;-46
2023/01/08 05:32:49;;;;;;;0.70;0.70;;;7.90;76.70;;;6.88;65.23;94449.69;5013744;28;20201;-38
2023/01/08 05:35:16;;;;;;;0.70;0.70;;;7.90;76.70;;;6.88;65.43;94451.47;5015405;28;20185;-38
2023/01/08 05:37:43;;;;;;;0.63;0.63;;;7.90;76.90;;;6.87;65.29;94442.03;5019482;28;20529;-38
2023/01/08 05:40:11;;;;;;;0.80;0.80;;;7.90;76.90;;;6.86;65.32;94443.84;5018323;28;20232;-38
2023/01/08 05:42:38;;;;;;;0.80;0.80;;;7.80;76.80;;;6.84;65.22;94438.00;5018374;28;20657;-40
2023/01/08 05:45:06;;;;;;;0.80;0.80;;;7.80;76.80;;;6.86;65.29;94443.03;5018259;28;20280;-38
2023/01/08 05:47:34;;;;;;;0.60;0.60;;;7.80;76.90;;;6.85;65.14;94442.22;5018296;28;20224;-38
2023/01/08 05:50:01;;;;;;;0.60;0.60;;;7.80;76.90;;;6.83;65.11;94441.59;5018158;28;20659;-38
2023/01/08 05:52:28;;;;;;;0.70;0.70;;;7.80;76.90;;;6.82;65.31;94437.38;5018777;28;20216;-39
2023/01/08 05:54:55;;;;;;;0.80;0.80;;;7.80;76.90;;;6.78;65.33;94430.09;5017989;28;20197;-38
2023/01/08 05:57:23;;;;;;;0.70;0.70;;;7.80;76.90;;;6.73;65.32;94428.03;5018526;28;20602;-38
2023/01/08 05:59:50;;;;;;;0.70;0.70;;;7.80;76.90;;;6.72;65.46;94434.22;5018231;28;20751;-38
2023/01/08 06:02:17;;;;;;;0.70;0.70;;;7.80;76.90;;;6.72;65.42;94440.25;5017989;28;20189;-38
2023/01/08 06:04:44;;;;;;;0.70;0.70;;;7.70;76.80;;;6.72;65.39;94444.66;5018038;28;20225;-38
2023/01/08 06:07:11;;;;;;;0.70;0.70;;;7.70;76.90;;;6.70;65.58;94436.19;5017831;28;20625;-38
2023/01/08 06:09:38;;;;;;;0.80;0.80;;;7.70;77.00;;;6.69;65.57;94432.78;5017969;28;20216;-39
2023/01/08 06:12:05;;;;;;;0.80;0.80;;;7.70;77.00;;;6.66;65.59;94422.72;5017770;28;20193;-40
2023/01/08 06:14:32;;;;;;;0.70;0.70;;;7.70;77.10;;;6.64;65.35;94427.31;5017675;28;20193;-42
2023/01/08 06:16:59;;;;;;;0.80;0.80;;;7.70;77.00;;;6.63;65.91;94424.88;5017698;28;20247;-38
2023/01/08 06:19:26;;;;;;;0.70;0.70;;;7.60;77.00;;;6.62;65.64;94425.88;5017534;28;20216;-38
2023/01/08 06:21:53;;;;;;;0.70;0.70;;;7.60;77.00;;;6.62;65.80;94434.50;5017584;28;20255;-44
2023/01/08 06:24:20;;;;;;;0.70;0.70;;;7.60;77.10;;;6.59;65.65;94434.84;5017649;28;20197;-38
2023/01/08 06:26:47;;;;;;;0.70;0.70;;;7.60;77.10;;;6.57;65.82;94439.44;5017692;28;20236;-38
2023/01/08 06:29:14;;;;;;;0.70;0.70;;;7.60;77.10;;;6.55;65.87;94431.81;5017466;28;20205;-38
2023/01/08 06:31:41;;;;;;;0.70;0.70;;;7.60;77.20;;;6.53;65.91;94436.38;5017709;28;20683;-41
2023/01/08 06:34:09;;;;;;;0.80;0.80;;;7.50;77.10;;;6.54;65.92;94437.19;5017269;28;20260;-38
2023/01/08 06:36:36;;;;;;;0.70;0.70;;;7.50;77.10;;;6.52;65.93;94434.75;5016585;28;20201;-39
2023/01/08 06:39:06;;;;;;;0.70;0.70;;;7.50;77.10;;;6.54;65.91;94432.78;5017606;28;20225;-40
2023/01/08 06:41:33;;;;;;;0.60;0.60;;;7.50;77.20;;;6.56;65.89;94424.78;5017208;28;20279;-38
2023/01/08 06:44:00;;;;;;;0.70;0.70;;;7.50;77.30;;;6.57;65.98;94432.41;5017065;28;20263;-44
2023/01/08 06:46:27;;;;;;;0.70;0.70;;;7.50;77.30;;;6.58;65.91;94438.47;5016834;28;20201;-38
2023/01/08 06:48:55;;;;;;;0.70;0.70;;;7.50;77.30;;;6.58;65.86;94441.06;5017092;28;20228;-41
2023/01/08 06:51:22;;;;;;;0.63;0.63;;;7.50;77.40;;;6.56;65.70;94435.22;5017096;28;20209;-38
2023/01/08 06:53:49;;;;;;;0.60;0.60;;;7.50;77.30;;;6.55;66.05;94433.59;5017127;28;20205;-44
2023/01/08 06:56:16;;;;;;;0.70;0.70;;;7.50;77.30;;;6.54;65.71;94434.56;5016931;28;20197;-41
2023/01/08 06:58:43;;;;;;;0.65;0.65;;;7.50;77.30;;;6.52;66.05;94432.16;5017011;28;20219;-38
2023/01/08 07:01:15;;;;;;;0.68;0.68;;;7.50;77.30;;;6.50;65.99;94420.28;5016809;28;20214;-43
2023/01/08 07:03:43;;;;;;;0.80;0.80;;;7.50;77.40;;;6.48;65.90;94410.06;5016845;28;20216;-41
2023/01/08 07:06:20;;;;;;;0.80;0.80;;;7.50;77.30;;;6.46;66.01;94412.03;5016808;28;20217;-41
2023/01/08 07:08:48;;;;;;;0.70;0.70;;;7.50;77.30;;;6.46;65.95;94406.81;5016765;28;20185;-40
2023/01/08 07:11:16;;;;;;;0.70;0.70;;;7.50;77.30;;;6.46;66.01;94406.00;5015810;28;20568;-41
2023/01/08 07:13:43;;;;;;;0.70;0.70;;;7.50;77.40;;;6.44;66.17;94411.38;5016755;28;20268;-42
2023/01/08 07:16:13;;;;;;;0.70;0.70;;;7.50;77.40;;;6.44;65.93;94406.19;5015671;28;20667;-42
2023/01/08 07:18:41;;;;;;;0.70;0.70;;;7.50;77.50;;;6.43;66.19;94395.94;5016537;28;20201;-47
2023/01/08 07:21:08;;;;;;;0.70;0.70;;;7.40;77.40;;;6.39;66.06;94388.47;5016752;28;20209;-37
2023/01/08 07:23:37;;;;;;;0.70;0.70;;;7.40;77.40;;;6.36;66.02;94393.22;5016721;28;20194;-42
2023/01/08 07:26:08;;;;;;;0.70;0.70;;;7.40;77.30;;;6.35;66.10;94391.63;5016444;28;20680;-38
2023/01/08 07:28:35;;;;;;;0.70;0.70;;;7.40;77.40;;;6.34;65.92;94388.19;5032011;28;20598;-38
2023/01/08 07:31:04;;;;;;;0.70;0.70;;;7.40;77.40;;;6.35;65.91;94381.22;5016371;28;20197;-38
2023/01/08 07:33:32;;;;;;;0.70;0.70;;;7.30;77.40;;;6.34;65.95;94377.00;5016295;28;20197;-36
2023/01/08 07:36:00;;;;;;;0.60;0.60;;;7.30;78.20;;;6.35;65.93;94383.81;5016202;28;20209;-36
2023/01/08 07:38:28;;;;;;;0.70;0.70;;;7.30;77.40;;;6.33;66.21;94370.16;5016356;28;20204;-36
2023/01/08 07:40:57;;;;;;;0.70;0.70;;;7.30;77.40;;;6.34;66.01;94374.38;5016359;28;20225;-41
2023/01/08 07:43:25;;;;;;;0.63;0.63;;;7.30;77.40;;;6.36;66.02;94377.59;5016017;28;20268;-37
2023/01/08 07:45:52;;;;;;;0.70;0.70;;;7.30;77.40;;;6.35;65.96;94382.00;5016093;28;20208;-37
2023/01/08 07:48:19;;;;;;;0.70;0.70;;;7.30;77.40;;;6.36;66.01;94385.41;5016063;28;20185;-36
2023/01/08 07:50:46;;;;;;;0.60;0.60;;;7.30;77.40;;;6.38;65.95;94388.66;5016142;28;20211;-38
2023/01/08 07:53:16;;;;;;;0.70;0.70;;;7.30;77.50;;;6.38;65.93;94393.88;5015851;28;20537;-38
2023/01/08 07:55:43;;;;;;;0.70;0.70;;;7.30;77.50;;;6.36;66.26;94398.44;5015848;28;20260;-39
2023/01/08 07:58:12;;;;;;;0.70;0.70;;;7.30;77.50;;;6.37;66.03;94403.50;5015217;28;20198;-45
2023/01/08 08:00:40;;;;;;;0.80;0.80;;;7.30;77.50;;;6.38;65.78;94409.50;5015777;28;20652;-39
2023/01/08 08:03:10;;;;;;;0.70;0.70;;;7.30;77.50;;;6.37;66.25;94408.69;5015775;28;20320;-37
2023/01/08 08:05:38;;;;;;;0.70;0.70;;;7.30;77.50;;;6.36;66.01;94408.84;5015827;28;20220;-41
2023/01/08 08:08:10;;;;;;;0.70;0.70;;;7.30;77.60;;;6.36;66.08;94411.47;5015722;28;20231;-37
2023/01/08 08:10:38;;;;;;;0.70;0.70;;;7.30;77.60;;;6.36;66.09;94414.91;5014797;28;20189;-38
2023/01/08 08:13:05;;;;;;;0.70;0.70;;;7.30;77.60;;;6.39;66.18;94417.13;5014959;28;20632;-37
2023/01/08 08:15:34;;;;;;;0.85;0.85;;;7.30;77.60;;;6.39;66.32;94408.50;5015578;28;20197;-42
2023/01/08 08:18:01;;;;;;;0.60;0.60;;;7.30;77.70;;;6.42;66.24;94415.97;5015709;28;20193;-35
2023/01/08 08:20:29;;;;;;;0.70;0.70;;;7.30;77.80;;;6.44;66.46;94408.78;5013949;28;20243;-36
2023/01/08 08:23:05;;;;;;;0.70;0.70;;;7.40;77.90;;;6.43;66.31;94388.94;5015260;28;20541;-36
2023/01/08 08:25:32;;;;;;;0.80;0.80;;;7.40;77.90;;;6.46;66.72;94380.75;5015377;28;20228;-36
2023/01/08 08:28:01;;;;;;;0.70;0.70;;;7.40;77.90;;;6.47;66.49;94377.19;5015904;28;20197;-46
2023/01/08 08:30:30;;;;;;;0.60;0.60;;;7.40;77.90;;;6.48;66.93;94372.75;5015852;28;20193;-39
2023/01/08 08:33:00;;;;;;;0.80;0.80;;;7.40;78.00;;;6.50;66.83;94365.59;5015710;28;20198;-47
2023/01/08 08:35:28;;;;;;;0.70;0.70;;;7.40;78.10;;;6.52;66.57;94353.19;5015191;28;20201;-40
2023/01/08 08:37:56;;;;;;;0.77;0.77;;;7.40;78.10;;;6.55;66.73;94345.81;4998973;28;20197;-40
2023/01/08 08:40:24;;;;;;;0.60;0.60;;;7.40;78.10;;;6.59;66.60;94342.84;5015196;28;20664;-48
2023/01/08 08:42:56;;;;;;;0.70;0.70;;;7.50;78.20;;;6.61;66.82;94340.88;5015331;28;20273;-47
2023/01/08 08:45:24;;;;;;;0.80;0.80;;;7.50;78.30;;;6.62;66.97;94347.72;5014475;28;20209;-38
2023/01/08 08:47:51;;;;;;;0.90;0.90;;;7.50;78.20;;;6.65;66.84;94342.13;5014254;28;20239;-37
2023/01/08 08:50:19;;;;;;;0.70;0.70;;;7.50;78.20;;;6.66;66.78;94344.53;5015461;28;20640;-36
2023/01/08 08:52:47;;;;;;;0.70;0.70;;;7.60;78.30;;;6.66;66.98;94331.50;5015157;28;20194;-43
2023/01/08 08:55:16;;;;;;;0.80;0.80;;;7.60;78.30;;;6.69;66.70;94325.94;5013420;28;20281;-46
2023/01/08 08:57:45;;;;;;;0.70;0.70;;;7.60;78.40;;;6.71;66.90;94325.75;5013490;28;20613;-47
2023/01/08 09:00:14;;;;;;;0.70;0.70;;;7.60;78.50;;;6.72;66.76;94328.16;5013542;28;20313;-47
2023/01/08 09:02:41;;;;;;;0.70;0.70;;;7.60;78.40;;;6.73;67.00;94315.97;5012663;28;20206;-46
2023/01/08 09:05:09;;;;;;;0.80;0.80;;;7.60;78.40;;;6.76;66.81;94318.19;5013570;28;20201;-36
2023/01/08 09:07:36;;;;;;;0.70;0.70;;;7.70;78.50;;;6.76;67.27;94305.16;5013223;28;20201;-41
2023/01/08 09:10:03;;;;;;;0.70;0.70;;;7.70;78.60;;;6.77;67.06;94304.16;5015409;28;20201;-39
2023/01/08 09:12:31;;;;;;;0.60;0.60;;;7.70;78.50;;;6.76;67.19;94302.56;5016852;28;20212;-36
2023/01/08 09:14:58;;;;;;;0.70;0.70;;;7.70;78.40;;;6.77;67.02;94300.78;5017237;28;20212;-38
2023/01/08 09:17:25;;;;;;;0.70;0.70;;;7.70;78.50;;;6.77;66.94;94298.97;5017665;28;20699;-38
2023/01/08 09:19:52;;;;;;;0.70;0.70;;;7.70;78.50;;;6.78;67.29;94292.75;5017124;28;20633;-46
2023/01/08 09:22:20;;;;;;;0.80;0.80;;;7.70;78.50;;;6.80;67.01;94293.41;5016862;28;20656;-40
2023/01/08 09:24:47;;;;;;;0.70;0.70;;;7.80;78.50;;;6.85;66.99;94303.28;5016096;28;20194;-37
2023/01/08 09:27:14;;;;;;;0.70;0.70;;;7.80;78.60;;;6.87;67.21;94311.69;5016132;28;20200;-38
2023/01/08 09:29:42;;;;;;;0.70;0.70;;;7.80;78.60;;;6.91;67.00;94317.34;5017419;28;20195;-39
2023/01/08 09:32:09;;;;;;;0.73;0.73;;;7.80;78.60;;;6.90;67.02;94321.78;5017961;28;20193;-45
2023/01/08 09:34:37;;;;;;;0.70;0.70;;;7.80;78.50;;;6.91;66.74;94314.75;5018026;28;20194;-49
2023/01/08 09:37:05;;;;;;;0.60;0.60;;;7.80;78.50;;;6.92;66.93;94319.81;5015847;28;20212;-36
2023/01/08 09:39:33;;;;;;;0.80;0.80;;;7.80;78.50;;;6.94;66.99;94323.00;5018002;28;20197;-47
2023/01/08 09:42:04;;;;;;;0.80;0.80;;;7.90;78.60;;;6.98;66.97;94313.03;5017984;28;20311;-38
2023/01/08 09:44:42;;;;;;;0.70;0.70;;;7.80;78.50;;;6.96;66.55;94309.81;5017813;28;20268;-48
2023/01/08 09:47:28;;;;;;;0.70;0.70;;;7.90;78.60;;;6.96;66.62;94315.81;5017504;28;20181;-47
2023/01/08 09:50:01;;;;;;;0.80;0.80;;;7.90;78.60;;;6.97;66.87;94319.22;5017894;28;20192;-40
2023/01/08 09:52:30;;;;;;;0.73;0.73;;;7.90;78.60;;;7.01;66.95;94313.47;5017379;28;20297;-39
2023/01/08 09:54:59;;;;;;;0.75;0.75;;;7.90;78.50;;;7.02;66.85;94309.06;5018375;28;20212;-48
2023/01/08 09:57:27;;;;;;;0.70;0.70;;;7.90;78.50;;;7.05;66.69;94311.28;5018696;28;20510;-49
2023/01/08 09:59:55;;;;;;;0.70;0.70;;;7.90;78.50;;;7.07;66.88;94305.88;5018241;28;20216;-46
2023/01/08 10:02:24;;;;;;;0.70;0.70;;;7.90;78.50;;;7.07;66.63;94301.50;5018224;28;20209;-46
2023/01/08 10:04:56;;;;;;;0.70;0.70;;;8.00;79.30;;;7.08;66.71;94291.88;5017304;28;20198;-46
2023/01/08 10:07:26;;;;;;;0.60;0.60;;;8.00;78.50;;;7.06;66.83;94281.63;5017154;28;20221;-46
2023/01/08 10:09:54;;;;;;;0.70;0.70;;;7.90;78.40;;;7.10;66.65;94282.06;5015496;28;20421;-48
2023/01/08 10:12:32;;;;;;;0.70;0.70;;;8.00;78.50;;;7.08;66.77;94279.66;5015386;28;20212;-46
2023/01/08 10:15:03;;;;;;;0.70;0.70;;;8.00;78.60;;;7.12;66.70;94282.69;5014788;28;20185;-48
2023/01/08 10:17:38;;;;;;;0.70;0.70;;;8.00;78.50;;;7.15;66.49;94274.47;5015753;28;20648;-48
2023/01/08 10:20:18;;;;;;;0.60;0.60;;;8.00;78.60;;;7.19;66.51;94279.16;5015643;28;20189;-48
2023/01/08 10:22:47;;;;;;;0.70;0.70;;;8.00;78.60;;;7.21;66.72;94286.78;5016324;28;20213;-47
2023/01/08 10:25:24;;;;;;;0.70;0.70;;;8.10;78.60;;;7.25;66.58;94303.69;5014904;28;20736;-36
2023/01/08 10:28:02;;;;;;;0.70;0.70;;;8.00;78.50;;;7.26;66.66;94313.09;5014336;28;20186;-36
2023/01/08 10:30:35;;;;;;;0.70;0.70;;;8.10;78.60;;;7.28;66.42;94313.72;5015322;28;20631;-47
2023/01/08 10:33:14;;;;;;;0.70;0.70;;;8.10;78.40;;;7.28;66.42;94318.16;5015865;28;20624;-41
2023/01/08 10:35:42;;;;;;;0.80;0.80;;;8.20;78.50;;;7.28;66.28;94329.38;5014885;28;20193;-38
2023/01/08 10:38:49;;;;;;;0.70;0.70;;;8.20;78.50;;;7.28;66.31;94325.97;5015761;28;20198;-39
2023/01/08 10:41:17;;;;;;;0.70;0.70;;;8.10;78.30;;;7.29;66.53;94323.19;4958034;29;20690;-41
2023/01/08 10:44:06;;;;;;;0.80;0.80;;;8.20;78.30;;;7.24;66.44;94329.94;5021236;28;20686;-46
2023/01/08 10:46:44;;;;;;;0.70;0.70;;;8.20;78.40;;;7.23;66.46;94334.34;5016378;28;20619;-36